sensor_id;sensor_type;location;lat;lon;timestamp;temperature;humidity
51029;DHT22;37054;52.054;8.600;2023-05-31T00:00:42;13.80;55.20
51029;DHT22;37054;52.054;8.600;2023-05-31T00:03:07;13.80;55.10
51029;DHT22;37054;52.054;8.600;2023-05-31T00:05:33;13.80;55.40
51029;DHT22;37054;52.054;8.600;2023-05-31T00:07:58;13.70;55.40
51029;DHT22;37054;52.054;8.600;2023-05-31T00:10:24;13.70;55.30
51029;DHT22;37054;52.054;8.600;2023-05-31T00:12:49;13.70;55.40
51029;DHT22;37054;52.054;8.600;2023-05-31T00:15:15;13.70;55.40
51029;DHT22;37054;52.054;8.600;2023-05-31T00:17:40;13.70;55.90
51029;DHT22;37054;52.054;8.600;2023-05-31T00:20:06;13.60;55.80
51029;DHT22;37054;52.054;8.600;2023-05-31T00:22:31;13.70;55.90
51029;DHT22;37054;52.054;8.600;2023-05-31T00:24:57;13.60;55.90
51029;DHT22;37054;52.054;8.600;2023-05-31T00:27:23;13.60;55.80
51029;DHT22;37054;52.054;8.600;2023-05-31T00:29:48;13.50;55.80
51029;DHT22;37054;52.054;8.600;2023-05-31T00:32:14;13.50;55.80
51029;DHT22;37054;52.054;8.600;2023-05-31T00:34:39;13.50;57.00
51029;DHT22;37054;52.054;8.600;2023-05-31T00:37:05;13.60;57.10
51029;DHT22;37054;52.054;8.600;2023-05-31T00:39:30;13.70;57.50
51029;DHT22;37054;52.054;8.600;2023-05-31T00:41:56;13.70;58.10
51029;DHT22;37054;52.054;8.600;2023-05-31T00:44:21;13.70;58.50
51029;DHT22;37054;52.054;8.600;2023-05-31T00:46:47;13.70;58.40
51029;DHT22;37054;52.054;8.600;2023-05-31T00:49:13;13.70;58.10
51029;DHT22;37054;52.054;8.600;2023-05-31T00:51:38;13.70;57.90
51029;DHT22;37054;52.054;8.600;2023-05-31T00:54:04;13.70;57.80
51029;DHT22;37054;52.054;8.600;2023-05-31T00:56:30;13.70;58.20
51029;DHT22;37054;52.054;8.600;2023-05-31T00:58:56;13.70;58.30
51029;DHT22;37054;52.054;8.600;2023-05-31T01:01:22;13.70;58.20
51029;DHT22;37054;52.054;8.600;2023-05-31T01:03:54;13.70;58.30
51029;DHT22;37054;52.054;8.600;2023-05-31T01:06:22;13.70;58.10
51029;DHT22;37054;52.054;8.600;2023-05-31T01:08:48;13.70;58.00
51029;DHT22;37054;52.054;8.600;2023-05-31T01:11:19;13.60;57.90
51029;DHT22;37054;52.054;8.600;2023-05-31T01:13:58;13.70;57.90
51029;DHT22;37054;52.054;8.600;2023-05-31T01:16:34;13.60;57.80
51029;DHT22;37054;52.054;8.600;2023-05-31T01:19:04;13.50;57.70
51029;DHT22;37054;52.054;8.600;2023-05-31T01:21:48;13.50;57.60
51029;DHT22;37054;52.054;8.600;2023-05-31T01:24:22;13.40;57.50
51029;DHT22;37054;52.054;8.600;2023-05-31T01:26:50;13.40;57.40
51029;DHT22;37054;52.054;8.600;2023-05-31T01:29:17;13.30;57.60
51029;DHT22;37054;52.054;8.600;2023-05-31T01:31:44;13.30;57.90
51029;DHT22;37054;52.054;8.600;2023-05-31T01:34:11;13.30;58.30
51029;DHT22;37054;52.054;8.600;2023-05-31T01:36:36;13.30;58.40
51029;DHT22;37054;52.054;8.600;2023-05-31T01:39:02;13.40;58.30
51029;DHT22;37054;52.054;8.600;2023-05-31T01:41:28;13.30;58.30
51029;DHT22;37054;52.054;8.600;2023-05-31T01:43:54;13.30;58.40
51029;DHT22;37054;52.054;8.600;2023-05-31T01:46:20;13.30;58.50
51029;DHT22;37054;52.054;8.600;2023-05-31T01:48:46;13.30;58.30
51029;DHT22;37054;52.054;8.600;2023-05-31T01:51:12;13.30;58.30
51029;DHT22;37054;52.054;8.600;2023-05-31T01:53:39;13.20;58.30
51029;DHT22;37054;52.054;8.600;2023-05-31T01:56:05;13.20;58.40
51029;DHT22;37054;52.054;8.600;2023-05-31T01:58:32;13.20;58.20
51029;DHT22;37054;52.054;8.600;2023-05-31T02:00:58;13.20;58.30
51029;DHT22;37054;52.054;8.600;2023-05-31T02:03:24;13.10;58.20
51029;DHT22;37054;52.054;8.600;2023-05-31T02:05:59;13.10;58.20
51029;DHT22;37054;52.054;8.600;2023-05-31T02:08:26;13.00;58.40
51029;DHT22;37054;52.054;8.600;2023-05-31T02:10:51;13.00;58.30
51029;DHT22;37054;52.054;8.600;2023-05-31T02:13:18;13.00;58.20
51029;DHT22;37054;52.054;8.600;2023-05-31T02:15:43;12.90;58.10
51029;DHT22;37054;52.054;8.600;2023-05-31T02:18:08;12.90;58.10
51029;DHT22;37054;52.054;8.600;2023-05-31T02:20:34;12.80;58.10
51029;DHT22;37054;52.054;8.600;2023-05-31T02:22:59;12.80;58.10
51029;DHT22;37054;52.054;8.600;2023-05-31T02:25:25;12.70;58.10
51029;DHT22;37054;52.054;8.600;2023-05-31T02:27:51;12.70;58.10
51029;DHT22;37054;52.054;8.600;2023-05-31T02:30:16;12.70;58.20
51029;DHT22;37054;52.054;8.600;2023-05-31T02:32:41;12.70;58.10
51029;DHT22;37054;52.054;8.600;2023-05-31T02:35:08;12.70;58.10
51029;DHT22;37054;52.054;8.600;2023-05-31T02:37:35;12.60;58.10
51029;DHT22;37054;52.054;8.600;2023-05-31T02:40:01;12.60;58.20
51029;DHT22;37054;52.054;8.600;2023-05-31T02:42:28;12.50;58.30
51029;DHT22;37054;52.054;8.600;2023-05-31T02:44:54;12.50;58.30
51029;DHT22;37054;52.054;8.600;2023-05-31T02:47:19;12.50;58.30
51029;DHT22;37054;52.054;8.600;2023-05-31T02:49:45;12.50;58.40
51029;DHT22;37054;52.054;8.600;2023-05-31T02:52:10;12.50;58.30
51029;DHT22;37054;52.054;8.600;2023-05-31T02:54:35;12.50;58.40
51029;DHT22;37054;52.054;8.600;2023-05-31T02:57:01;12.50;58.40
51029;DHT22;37054;52.054;8.600;2023-05-31T02:59:26;12.40;58.50
51029;DHT22;37054;52.054;8.600;2023-05-31T03:01:52;12.40;58.50
51029;DHT22;37054;52.054;8.600;2023-05-31T03:04:17;12.40;58.50
51029;DHT22;37054;52.054;8.600;2023-05-31T03:06:43;12.40;58.50
51029;DHT22;37054;52.054;8.600;2023-05-31T03:09:08;12.40;58.50
51029;DHT22;37054;52.054;8.600;2023-05-31T03:11:34;12.40;58.50
51029;DHT22;37054;52.054;8.600;2023-05-31T03:13:59;12.40;58.40
51029;DHT22;37054;52.054;8.600;2023-05-31T03:16:24;12.30;58.40
51029;DHT22;37054;52.054;8.600;2023-05-31T03:18:50;12.30;58.60
51029;DHT22;37054;52.054;8.600;2023-05-31T03:21:16;12.30;58.60
51029;DHT22;37054;52.054;8.600;2023-05-31T03:23:41;12.30;58.80
51029;DHT22;37054;52.054;8.600;2023-05-31T03:26:07;12.30;58.80
51029;DHT22;37054;52.054;8.600;2023-05-31T03:28:32;12.30;58.80
51029;DHT22;37054;52.054;8.600;2023-05-31T03:30:58;12.40;59.00
51029;DHT22;37054;52.054;8.600;2023-05-31T03:33:23;12.50;59.40
51029;DHT22;37054;52.054;8.600;2023-05-31T03:35:48;12.60;59.60
51029;DHT22;37054;52.054;8.600;2023-05-31T03:38:14;12.80;59.60
51029;DHT22;37054;52.054;8.600;2023-05-31T03:40:39;12.90;59.70
51029;DHT22;37054;52.054;8.600;2023-05-31T03:43:07;13.20;59.90
51029;DHT22;37054;52.054;8.600;2023-05-31T03:45:32;13.30;60.10
51029;DHT22;37054;52.054;8.600;2023-05-31T03:47:58;13.60;60.50
51029;DHT22;37054;52.054;8.600;2023-05-31T03:50:23;13.80;60.70
51029;DHT22;37054;52.054;8.600;2023-05-31T03:52:49;14.00;60.80
51029;DHT22;37054;52.054;8.600;2023-05-31T03:55:14;14.30;60.80
51029;DHT22;37054;52.054;8.600;2023-05-31T03:57:40;14.60;60.70
51029;DHT22;37054;52.054;8.600;2023-05-31T04:00:05;14.90;60.70
51029;DHT22;37054;52.054;8.600;2023-05-31T04:02:31;15.20;60.60
51029;DHT22;37054;52.054;8.600;2023-05-31T04:04:57;15.50;60.50
51029;DHT22;37054;52.054;8.600;2023-05-31T04:07:22;15.90;60.50
51029;DHT22;37054;52.054;8.600;2023-05-31T04:09:48;16.30;60.50
51029;DHT22;37054;52.054;8.600;2023-05-31T04:12:13;16.70;60.30
51029;DHT22;37054;52.054;8.600;2023-05-31T04:14:38;17.00;60.20
51029;DHT22;37054;52.054;8.600;2023-05-31T04:17:04;17.40;60.00
51029;DHT22;37054;52.054;8.600;2023-05-31T04:19:30;17.80;59.80
51029;DHT22;37054;52.054;8.600;2023-05-31T04:21:55;18.20;59.50
51029;DHT22;37054;52.054;8.600;2023-05-31T04:24:21;18.50;59.20
51029;DHT22;37054;52.054;8.600;2023-05-31T04:26:46;18.90;59.10
51029;DHT22;37054;52.054;8.600;2023-05-31T04:29:12;19.20;58.80
51029;DHT22;37054;52.054;8.600;2023-05-31T04:31:37;19.60;58.30
51029;DHT22;37054;52.054;8.600;2023-05-31T04:34:03;20.00;57.80
51029;DHT22;37054;52.054;8.600;2023-05-31T04:36:29;20.30;57.50
51029;DHT22;37054;52.054;8.600;2023-05-31T04:38:55;20.70;56.80
51029;DHT22;37054;52.054;8.600;2023-05-31T04:41:24;20.90;55.80
51029;DHT22;37054;52.054;8.600;2023-05-31T04:43:54;21.20;55.40
51029;DHT22;37054;52.054;8.600;2023-05-31T04:46:19;21.50;54.60
51029;DHT22;37054;52.054;8.600;2023-05-31T04:48:46;21.80;54.00
51029;DHT22;37054;52.054;8.600;2023-05-31T04:51:16;22.20;53.60
51029;DHT22;37054;52.054;8.600;2023-05-31T04:53:41;22.50;53.00
51029;DHT22;37054;52.054;8.600;2023-05-31T04:56:07;23.00;51.70
51029;DHT22;37054;52.054;8.600;2023-05-31T04:58:33;23.30;49.90
51029;DHT22;37054;52.054;8.600;2023-05-31T05:00:58;23.70;49.00
51029;DHT22;37054;52.054;8.600;2023-05-31T05:03:25;24.00;48.10
51029;DHT22;37054;52.054;8.600;2023-05-31T05:05:51;24.30;46.80
51029;DHT22;37054;52.054;8.600;2023-05-31T05:08:16;24.80;46.10
51029;DHT22;37054;52.054;8.600;2023-05-31T05:10:43;25.10;45.80
51029;DHT22;37054;52.054;8.600;2023-05-31T05:13:08;25.50;44.20
51029;DHT22;37054;52.054;8.600;2023-05-31T05:15:34;25.80;43.60
51029;DHT22;37054;52.054;8.600;2023-05-31T05:17:59;26.10;42.60
51029;DHT22;37054;52.054;8.600;2023-05-31T05:20:25;26.40;42.20
51029;DHT22;37054;52.054;8.600;2023-05-31T05:22:51;26.80;41.10
51029;DHT22;37054;52.054;8.600;2023-05-31T05:25:17;27.10;40.00
51029;DHT22;37054;52.054;8.600;2023-05-31T05:27:42;27.40;39.40
51029;DHT22;37054;52.054;8.600;2023-05-31T05:30:08;27.70;38.70
51029;DHT22;37054;52.054;8.600;2023-05-31T05:32:34;28.00;38.10
51029;DHT22;37054;52.054;8.600;2023-05-31T05:34:59;28.20;37.10
51029;DHT22;37054;52.054;8.600;2023-05-31T05:37:25;28.50;36.60
51029;DHT22;37054;52.054;8.600;2023-05-31T05:39:50;28.80;36.00
51029;DHT22;37054;52.054;8.600;2023-05-31T05:42:16;28.90;34.80
51029;DHT22;37054;52.054;8.600;2023-05-31T05:44:41;29.10;34.20
51029;DHT22;37054;52.054;8.600;2023-05-31T05:47:07;29.30;33.80
51029;DHT22;37054;52.054;8.600;2023-05-31T05:49:32;29.30;33.40
51029;DHT22;37054;52.054;8.600;2023-05-31T05:52:00;29.50;33.30
51029;DHT22;37054;52.054;8.600;2023-05-31T05:54:26;29.80;33.20
51029;DHT22;37054;52.054;8.600;2023-05-31T05:56:51;30.00;32.30
51029;DHT22;37054;52.054;8.600;2023-05-31T05:59:17;30.20;32.40
51029;DHT22;37054;52.054;8.600;2023-05-31T06:01:42;30.50;32.00
51029;DHT22;37054;52.054;8.600;2023-05-31T06:04:07;30.70;31.70
51029;DHT22;37054;52.054;8.600;2023-05-31T06:06:33;30.90;31.20
51029;DHT22;37054;52.054;8.600;2023-05-31T06:08:58;31.20;31.10
51029;DHT22;37054;52.054;8.600;2023-05-31T06:11:24;31.30;30.70
51029;DHT22;37054;52.054;8.600;2023-05-31T06:13:50;31.50;29.80
51029;DHT22;37054;52.054;8.600;2023-05-31T06:16:21;31.50;29.80
51029;DHT22;37054;52.054;8.600;2023-05-31T06:18:47;31.70;29.70
51029;DHT22;37054;52.054;8.600;2023-05-31T06:21:13;31.80;29.70
51029;DHT22;37054;52.054;8.600;2023-05-31T06:23:38;32.10;29.30
51029;DHT22;37054;52.054;8.600;2023-05-31T06:26:03;32.40;29.60
51029;DHT22;37054;52.054;8.600;2023-05-31T06:28:29;32.80;29.20
51029;DHT22;37054;52.054;8.600;2023-05-31T06:30:54;33.10;28.70
51029;DHT22;37054;52.054;8.600;2023-05-31T06:33:20;33.30;28.40
51029;DHT22;37054;52.054;8.600;2023-05-31T06:35:46;33.70;28.00
51029;DHT22;37054;52.054;8.600;2023-05-31T06:38:11;33.90;27.60
51029;DHT22;37054;52.054;8.600;2023-05-31T06:40:42;34.20;27.20
51029;DHT22;37054;52.054;8.600;2023-05-31T06:43:08;34.30;26.70
51029;DHT22;37054;52.054;8.600;2023-05-31T06:45:34;34.60;26.60
51029;DHT22;37054;52.054;8.600;2023-05-31T06:47:59;34.80;26.50
51029;DHT22;37054;52.054;8.600;2023-05-31T06:50:25;35.20;26.50
51029;DHT22;37054;52.054;8.600;2023-05-31T06:52:50;35.60;26.10
51029;DHT22;37054;52.054;8.600;2023-05-31T06:55:16;35.90;25.10
51029;DHT22;37054;52.054;8.600;2023-05-31T06:57:41;36.00;24.90
51029;DHT22;37054;52.054;8.600;2023-05-31T07:00:07;36.10;24.60
51029;DHT22;37054;52.054;8.600;2023-05-31T07:02:32;36.30;24.60
51029;DHT22;37054;52.054;8.600;2023-05-31T07:04:58;36.40;24.20
51029;DHT22;37054;52.054;8.600;2023-05-31T07:07:25;36.60;24.40
51029;DHT22;37054;52.054;8.600;2023-05-31T07:09:51;36.80;23.50
51029;DHT22;37054;52.054;8.600;2023-05-31T07:12:16;36.80;23.10
51029;DHT22;37054;52.054;8.600;2023-05-31T07:14:42;36.80;23.00
51029;DHT22;37054;52.054;8.600;2023-05-31T07:17:07;37.10;23.20
51029;DHT22;37054;52.054;8.600;2023-05-31T07:19:42;37.40;23.30
51029;DHT22;37054;52.054;8.600;2023-05-31T07:22:07;37.70;22.90
51029;DHT22;37054;52.054;8.600;2023-05-31T07:24:33;38.00;22.90
51029;DHT22;37054;52.054;8.600;2023-05-31T07:26:58;38.30;22.70
51029;DHT22;37054;52.054;8.600;2023-05-31T07:29:24;38.70;22.30
51029;DHT22;37054;52.054;8.600;2023-05-31T07:31:49;38.70;21.70
51029;DHT22;37054;52.054;8.600;2023-05-31T07:34:14;38.60;21.00
51029;DHT22;37054;52.054;8.600;2023-05-31T07:36:40;38.50;21.20
51029;DHT22;37054;52.054;8.600;2023-05-31T07:39:07;38.40;21.10
51029;DHT22;37054;52.054;8.600;2023-05-31T07:41:34;38.40;21.40
51029;DHT22;37054;52.054;8.600;2023-05-31T07:44:00;38.50;20.90
51029;DHT22;37054;52.054;8.600;2023-05-31T07:46:26;38.40;21.00
51029;DHT22;37054;52.054;8.600;2023-05-31T07:48:51;38.60;21.10
51029;DHT22;37054;52.054;8.600;2023-05-31T07:51:19;38.80;21.00
51029;DHT22;37054;52.054;8.600;2023-05-31T07:53:45;39.00;20.80
51029;DHT22;37054;52.054;8.600;2023-05-31T07:56:12;39.00;20.80
51029;DHT22;37054;52.054;8.600;2023-05-31T07:58:37;39.10;20.70
51029;DHT22;37054;52.054;8.600;2023-05-31T08:01:03;39.20;20.70
51029;DHT22;37054;52.054;8.600;2023-05-31T08:03:28;39.20;20.50
51029;DHT22;37054;52.054;8.600;2023-05-31T08:05:54;39.20;20.30
51029;DHT22;37054;52.054;8.600;2023-05-31T08:08:19;39.10;20.20
51029;DHT22;37054;52.054;8.600;2023-05-31T08:10:45;39.00;20.30
51029;DHT22;37054;52.054;8.600;2023-05-31T08:13:10;38.90;20.40
51029;DHT22;37054;52.054;8.600;2023-05-31T08:15:36;39.00;20.50
51029;DHT22;37054;52.054;8.600;2023-05-31T08:18:02;39.30;20.70
51029;DHT22;37054;52.054;8.600;2023-05-31T08:20:27;39.40;20.30
51029;DHT22;37054;52.054;8.600;2023-05-31T08:22:53;39.60;20.60
51029;DHT22;37054;52.054;8.600;2023-05-31T08:25:18;39.80;19.70
51029;DHT22;37054;52.054;8.600;2023-05-31T08:27:44;39.70;19.20
51029;DHT22;37054;52.054;8.600;2023-05-31T08:30:09;39.30;19.20
51029;DHT22;37054;52.054;8.600;2023-05-31T08:32:36;39.30;19.70
51029;DHT22;37054;52.054;8.600;2023-05-31T08:35:01;39.30;19.60
51029;DHT22;37054;52.054;8.600;2023-05-31T08:37:27;39.50;19.70
51029;DHT22;37054;52.054;8.600;2023-05-31T08:39:52;39.70;19.20
51029;DHT22;37054;52.054;8.600;2023-05-31T08:42:24;39.80;19.10
51029;DHT22;37054;52.054;8.600;2023-05-31T08:44:50;39.90;19.10
51029;DHT22;37054;52.054;8.600;2023-05-31T08:47:30;40.00;18.90
51029;DHT22;37054;52.054;8.600;2023-05-31T08:49:57;40.20;19.00
51029;DHT22;37054;52.054;8.600;2023-05-31T08:52:23;40.50;19.00
51029;DHT22;37054;52.054;8.600;2023-05-31T08:54:49;40.50;19.00
51029;DHT22;37054;52.054;8.600;2023-05-31T08:57:15;40.70;18.70
51029;DHT22;37054;52.054;8.600;2023-05-31T08:59:41;40.90;18.60
51029;DHT22;37054;52.054;8.600;2023-05-31T09:02:07;40.80;17.90
51029;DHT22;37054;52.054;8.600;2023-05-31T09:04:34;40.70;18.20
51029;DHT22;37054;52.054;8.600;2023-05-31T09:06:59;40.90;18.40
51029;DHT22;37054;52.054;8.600;2023-05-31T09:09:26;41.10;18.20
51029;DHT22;37054;52.054;8.600;2023-05-31T09:11:52;41.30;18.30
51029;DHT22;37054;52.054;8.600;2023-05-31T09:14:17;41.60;18.50
51029;DHT22;37054;52.054;8.600;2023-05-31T09:16:43;41.90;17.90
51029;DHT22;37054;52.054;8.600;2023-05-31T09:19:08;41.90;17.40
51029;DHT22;37054;52.054;8.600;2023-05-31T09:21:38;41.80;17.20
51029;DHT22;37054;52.054;8.600;2023-05-31T09:24:03;41.60;17.30
51029;DHT22;37054;52.054;8.600;2023-05-31T09:26:29;41.60;17.50
51029;DHT22;37054;52.054;8.600;2023-05-31T09:28:58;41.90;17.50
51029;DHT22;37054;52.054;8.600;2023-05-31T09:31:24;42.10;17.60
51029;DHT22;37054;52.054;8.600;2023-05-31T09:33:49;42.30;17.20
51029;DHT22;37054;52.054;8.600;2023-05-31T09:36:26;42.30;16.60
51029;DHT22;37054;52.054;8.600;2023-05-31T09:39:02;42.50;15.80
51029;DHT22;37054;52.054;8.600;2023-05-31T09:41:33;42.40;16.10
51029;DHT22;37054;52.054;8.600;2023-05-31T09:43:58;42.50;16.10
51029;DHT22;37054;52.054;8.600;2023-05-31T09:46:24;42.60;15.60
51029;DHT22;37054;52.054;8.600;2023-05-31T09:49:00;42.30;14.70
51029;DHT22;37054;52.054;8.600;2023-05-31T09:51:26;41.80;15.00
51029;DHT22;37054;52.054;8.600;2023-05-31T09:53:51;41.60;15.30
51029;DHT22;37054;52.054;8.600;2023-05-31T09:56:21;41.50;15.20
51029;DHT22;37054;52.054;8.600;2023-05-31T09:58:47;41.30;15.40
51029;DHT22;37054;52.054;8.600;2023-05-31T10:01:13;41.30;15.80
51029;DHT22;37054;52.054;8.600;2023-05-31T10:03:39;41.50;15.90
51029;DHT22;37054;52.054;8.600;2023-05-31T10:06:05;41.30;15.60
51029;DHT22;37054;52.054;8.600;2023-05-31T10:08:31;41.10;15.40
51029;DHT22;37054;52.054;8.600;2023-05-31T10:10:58;40.70;15.60
51029;DHT22;37054;52.054;8.600;2023-05-31T10:13:26;40.50;15.90
51029;DHT22;37054;52.054;8.600;2023-05-31T10:15:52;40.40;15.90
51029;DHT22;37054;52.054;8.600;2023-05-31T10:18:19;40.20;16.20
51029;DHT22;37054;52.054;8.600;2023-05-31T10:20:51;39.90;16.10
51029;DHT22;37054;52.054;8.600;2023-05-31T10:23:19;39.60;16.20
51029;DHT22;37054;52.054;8.600;2023-05-31T10:28:17;39.40;16.60
51029;DHT22;37054;52.054;8.600;2023-05-31T10:30:45;39.20;16.70
51029;DHT22;37054;52.054;8.600;2023-05-31T10:33:12;38.90;17.00
51029;DHT22;37054;52.054;8.600;2023-05-31T10:35:37;38.70;17.20
51029;DHT22;37054;52.054;8.600;2023-05-31T10:38:03;38.50;17.50
51029;DHT22;37054;52.054;8.600;2023-05-31T10:43:19;38.40;17.60
51029;DHT22;37054;52.054;8.600;2023-05-31T10:45:46;38.00;17.90
51029;DHT22;37054;52.054;8.600;2023-05-31T10:48:20;37.50;18.50
51029;DHT22;37054;52.054;8.600;2023-05-31T10:50:51;37.50;19.10
51029;DHT22;37054;52.054;8.600;2023-05-31T10:53:16;37.40;19.00
51029;DHT22;37054;52.054;8.600;2023-05-31T10:55:42;37.30;19.30
51029;DHT22;37054;52.054;8.600;2023-05-31T10:58:28;37.30;19.20
51029;DHT22;37054;52.054;8.600;2023-05-31T11:00:55;37.00;18.90
51029;DHT22;37054;52.054;8.600;2023-05-31T11:03:21;36.70;19.40
51029;DHT22;37054;52.054;8.600;2023-05-31T11:05:54;36.60;19.60
51029;DHT22;37054;52.054;8.600;2023-05-31T11:08:20;36.60;19.80
51029;DHT22;37054;52.054;8.600;2023-05-31T11:10:45;36.50;19.60
51029;DHT22;37054;52.054;8.600;2023-05-31T11:13:10;36.40;19.70
51029;DHT22;37054;52.054;8.600;2023-05-31T11:18:09;36.30;19.90
51029;DHT22;37054;52.054;8.600;2023-05-31T11:20:35;36.40;19.90
51029;DHT22;37054;52.054;8.600;2023-05-31T11:25:43;36.20;19.50
51029;DHT22;37054;52.054;8.600;2023-05-31T11:28:09;35.90;19.60
51029;DHT22;37054;52.054;8.600;2023-05-31T11:30:36;35.70;19.80
51029;DHT22;37054;52.054;8.600;2023-05-31T11:33:02;35.60;20.10
51029;DHT22;37054;52.054;8.600;2023-05-31T11:35:31;35.50;20.30
51029;DHT22;37054;52.054;8.600;2023-05-31T11:38:01;35.60;20.10
51029;DHT22;37054;52.054;8.600;2023-05-31T11:40:28;35.50;20.30
51029;DHT22;37054;52.054;8.600;2023-05-31T11:42:54;35.60;20.70
51029;DHT22;37054;52.054;8.600;2023-05-31T11:45:27;35.60;20.30
51029;DHT22;37054;52.054;8.600;2023-05-31T11:50:41;35.50;20.40
51029;DHT22;37054;52.054;8.600;2023-05-31T11:53:06;35.50;20.30
51029;DHT22;37054;52.054;8.600;2023-05-31T11:55:32;35.40;20.60
51029;DHT22;37054;52.054;8.600;2023-05-31T11:58:00;35.30;20.40
51029;DHT22;37054;52.054;8.600;2023-05-31T12:00:26;35.20;20.80
51029;DHT22;37054;52.054;8.600;2023-05-31T12:02:54;34.90;21.00
51029;DHT22;37054;52.054;8.600;2023-05-31T12:05:21;34.80;21.30
51029;DHT22;37054;52.054;8.600;2023-05-31T12:07:47;34.70;21.60
51029;DHT22;37054;52.054;8.600;2023-05-31T12:10:13;34.70;21.70
51029;DHT22;37054;52.054;8.600;2023-05-31T12:12:38;34.90;21.60
51029;DHT22;37054;52.054;8.600;2023-05-31T12:15:04;35.00;21.30
51029;DHT22;37054;52.054;8.600;2023-05-31T12:17:30;34.90;21.10
51029;DHT22;37054;52.054;8.600;2023-05-31T12:19:55;34.90;21.20
51029;DHT22;37054;52.054;8.600;2023-05-31T12:22:21;35.10;21.30
51029;DHT22;37054;52.054;8.600;2023-05-31T12:24:47;35.30;21.50
51029;DHT22;37054;52.054;8.600;2023-05-31T12:27:12;35.40;21.30
51029;DHT22;37054;52.054;8.600;2023-05-31T12:29:39;35.40;21.30
51029;DHT22;37054;52.054;8.600;2023-05-31T12:32:04;35.50;21.40
51029;DHT22;37054;52.054;8.600;2023-05-31T12:34:36;35.60;21.10
51029;DHT22;37054;52.054;8.600;2023-05-31T12:37:04;35.60;21.00
51029;DHT22;37054;52.054;8.600;2023-05-31T12:39:30;35.40;21.10
51029;DHT22;37054;52.054;8.600;2023-05-31T12:41:56;35.30;21.30
51029;DHT22;37054;52.054;8.600;2023-05-31T12:44:22;35.20;21.30
51029;DHT22;37054;52.054;8.600;2023-05-31T12:46:48;35.20;21.20
51029;DHT22;37054;52.054;8.600;2023-05-31T12:49:18;34.90;21.20
51029;DHT22;37054;52.054;8.600;2023-05-31T12:51:44;34.60;21.70
51029;DHT22;37054;52.054;8.600;2023-05-31T12:54:10;34.30;21.90
51029;DHT22;37054;52.054;8.600;2023-05-31T12:56:37;34.10;22.30
51029;DHT22;37054;52.054;8.600;2023-05-31T12:59:02;33.80;22.40
51029;DHT22;37054;52.054;8.600;2023-05-31T13:01:27;33.80;22.70
51029;DHT22;37054;52.054;8.600;2023-05-31T13:03:53;33.70;22.40
51029;DHT22;37054;52.054;8.600;2023-05-31T13:06:19;33.60;22.70
51029;DHT22;37054;52.054;8.600;2023-05-31T13:08:44;33.50;22.80
51029;DHT22;37054;52.054;8.600;2023-05-31T13:11:10;33.50;22.80
51029;DHT22;37054;52.054;8.600;2023-05-31T13:13:35;33.50;22.90
51029;DHT22;37054;52.054;8.600;2023-05-31T13:16:01;33.40;22.40
51029;DHT22;37054;52.054;8.600;2023-05-31T13:18:26;33.20;22.70
51029;DHT22;37054;52.054;8.600;2023-05-31T13:20:52;33.30;22.80
51029;DHT22;37054;52.054;8.600;2023-05-31T13:23:18;33.40;22.90
51029;DHT22;37054;52.054;8.600;2023-05-31T13:25:43;33.50;22.70
51029;DHT22;37054;52.054;8.600;2023-05-31T13:28:08;33.40;22.50
51029;DHT22;37054;52.054;8.600;2023-05-31T13:30:34;33.30;22.70
51029;DHT22;37054;52.054;8.600;2023-05-31T13:32:59;33.20;23.00
51029;DHT22;37054;52.054;8.600;2023-05-31T13:35:25;33.30;23.10
51029;DHT22;37054;52.054;8.600;2023-05-31T13:37:50;33.30;22.60
51029;DHT22;37054;52.054;8.600;2023-05-31T13:40:15;33.20;22.50
51029;DHT22;37054;52.054;8.600;2023-05-31T13:42:41;33.00;22.50
51029;DHT22;37054;52.054;8.600;2023-05-31T13:45:06;32.90;22.70
51029;DHT22;37054;52.054;8.600;2023-05-31T13:47:32;32.90;23.00
51029;DHT22;37054;52.054;8.600;2023-05-31T13:49:58;32.80;22.90
51029;DHT22;37054;52.054;8.600;2023-05-31T13:52:23;32.70;23.10
51029;DHT22;37054;52.054;8.600;2023-05-31T13:54:49;32.60;23.10
51029;DHT22;37054;52.054;8.600;2023-05-31T13:57:14;32.60;23.10
51029;DHT22;37054;52.054;8.600;2023-05-31T13:59:39;32.70;22.80
51029;DHT22;37054;52.054;8.600;2023-05-31T14:02:05;32.70;23.30
51029;DHT22;37054;52.054;8.600;2023-05-31T14:04:30;32.60;23.40
51029;DHT22;37054;52.054;8.600;2023-05-31T14:06:56;32.60;23.40
51029;DHT22;37054;52.054;8.600;2023-05-31T14:09:22;32.60;23.30
51029;DHT22;37054;52.054;8.600;2023-05-31T14:11:48;32.50;23.50
51029;DHT22;37054;52.054;8.600;2023-05-31T14:14:13;32.50;23.20
51029;DHT22;37054;52.054;8.600;2023-05-31T14:16:39;32.40;23.50
51029;DHT22;37054;52.054;8.600;2023-05-31T14:19:04;32.40;23.60
51029;DHT22;37054;52.054;8.600;2023-05-31T14:21:30;32.40;24.00
51029;DHT22;37054;52.054;8.600;2023-05-31T14:23:57;32.30;24.30
51029;DHT22;37054;52.054;8.600;2023-05-31T14:26:22;32.20;24.30
51029;DHT22;37054;52.054;8.600;2023-05-31T14:28:48;32.20;24.30
51029;DHT22;37054;52.054;8.600;2023-05-31T14:31:13;32.20;23.90
51029;DHT22;37054;52.054;8.600;2023-05-31T14:33:39;32.10;23.70
51029;DHT22;37054;52.054;8.600;2023-05-31T14:36:04;32.10;23.50
51029;DHT22;37054;52.054;8.600;2023-05-31T14:38:30;32.00;23.70
51029;DHT22;37054;52.054;8.600;2023-05-31T14:40:55;31.80;24.00
51029;DHT22;37054;52.054;8.600;2023-05-31T14:43:21;31.70;24.50
51029;DHT22;37054;52.054;8.600;2023-05-31T14:45:46;31.50;24.80
51029;DHT22;37054;52.054;8.600;2023-05-31T14:48:12;31.30;25.20
51029;DHT22;37054;52.054;8.600;2023-05-31T14:50:38;31.00;25.70
51029;DHT22;37054;52.054;8.600;2023-05-31T14:53:03;30.70;26.40
51029;DHT22;37054;52.054;8.600;2023-05-31T14:55:29;30.30;26.90
51029;DHT22;37054;52.054;8.600;2023-05-31T14:57:54;30.20;27.30
51029;DHT22;37054;52.054;8.600;2023-05-31T15:00:19;30.00;27.30
51029;DHT22;37054;52.054;8.600;2023-05-31T15:02:45;29.80;27.40
51029;DHT22;37054;52.054;8.600;2023-05-31T15:05:11;29.80;27.40
51029;DHT22;37054;52.054;8.600;2023-05-31T15:07:36;29.60;27.80
51029;DHT22;37054;52.054;8.600;2023-05-31T15:10:02;29.60;27.70
51029;DHT22;37054;52.054;8.600;2023-05-31T15:12:28;29.50;28.00
51029;DHT22;37054;52.054;8.600;2023-05-31T15:14:53;29.40;27.90
51029;DHT22;37054;52.054;8.600;2023-05-31T15:17:19;29.30;27.70
51029;DHT22;37054;52.054;8.600;2023-05-31T15:19:44;29.30;27.70
51029;DHT22;37054;52.054;8.600;2023-05-31T15:22:09;29.30;27.70
51029;DHT22;37054;52.054;8.600;2023-05-31T15:24:35;29.30;28.00
51029;DHT22;37054;52.054;8.600;2023-05-31T15:27:02;29.20;27.80
51029;DHT22;37054;52.054;8.600;2023-05-31T15:29:28;29.20;27.40
51029;DHT22;37054;52.054;8.600;2023-05-31T15:31:53;29.10;27.90
51029;DHT22;37054;52.054;8.600;2023-05-31T15:34:21;29.00;27.80
51029;DHT22;37054;52.054;8.600;2023-05-31T15:36:47;28.90;27.90